NORTHEAST SUFFOLK  -  Special Weather Statement Special Weather Statement        NORTHERN NASSAU  -  Special Weather Statement Special Weather Statement        NORTHWEST SUFFOLK  -  Special Weather Statement Special Weather Statement        SOUTHEAST SUFFOLK  -  Special Weather Statement Special Weather Statement        SOUTHERN NASSAU  -  Special Weather Statement Special Weather Statement        SOUTHWEST SUFFOLK  -  Special Weather Statement Special Weather Statement      

Active alerts

Northern Nassau
  Details for Northern Nassau Special Weather Statement
Southern Nassau
  Details for Southern Nassau Special Weather Statement
Northwest Suffolk
  Details for Northwest Suffolk Special Weather Statement
Southwest Suffolk
  Details for Southwest Suffolk Special Weather Statement
Northeast Suffolk
  Details for Northeast Suffolk Special Weather Statement
Southeast Suffolk
  Details for Southeast Suffolk Special Weather Statement


WXM80 ListenWXM80 Stop

You find our weather info also at:

UK Metoffice

WeatherCloud

Weather Underground

Northeastern Weather Network

AWEKAS

Citizen Weather Observer Program (CWOP)

HAMweather, WeatherForYou, PWS Weather


Weather Underground History page Text

Daily Summary for November 17, 2017 Units:  Both    English   Metric
« Previous Day
Next Day »
Daily Weekly Monthly Yearly Custom
  High: Low: Average:
Temperature: 48.7 °F /  9.3 °C 39.0 °F /  3.9 °C 43.9 °F /  6.6 °C
Dew Point: 37.2 °F /  2.9 °C 23.6 °F /  -4.7 °C 30 °F /  -1.1 °C
Humidity: 73 % 46 % 58 %
Wind Speed: 12.2 mph /  19.6 km/h - 5.6 mph /  9 km/h
Wind Gust: 24.2 mph /  38.9 km/h - -
Wind:- - WNW
Pressure: 30.11 in /  1019.5 hPa 29.86 in /  1011.1 hPa -
Precipitation: 0.00 in /  0 mm    
Historical Graphs
 
 
Tabular Data for November 17, 2017
Time Temperature Dew Point Pressure Wind Wind Speed Wind Gust Humidity Rainfall Rate (Hourly)
00:01 45.8 °F /  7.7 °C 36.9 °F /  2.7 °C 29.86 in /  1011.1 hPa WNW 6.4 mph /  10.3 km/h 19.6 mph /  31.5 km/h 71 % 0.00 in /  0 mm
00:02 45.8 °F /  7.7 °C 36.9 °F /  2.7 °C 29.86 in /  1011.1 hPa West 9.5 mph /  15.3 km/h 16.1 mph /  25.9 km/h 71 % 0.00 in /  0 mm
00:07 45.7 °F /  7.6 °C 36.8 °F /  2.7 °C 29.86 in /  1011.1 hPa WNW 7.0 mph /  11.3 km/h 10.4 mph /  16.7 km/h 71 % 0.00 in /  0 mm
00:12 45.7 °F /  7.6 °C 37.2 °F /  2.9 °C 29.86 in /  1011.1 hPa North 8.9 mph /  14.3 km/h 14.0 mph /  22.5 km/h 72 % 0.00 in /  0 mm
00:17 45.6 °F /  7.6 °C 36.7 °F /  2.6 °C 29.86 in /  1011.1 hPa West 12.2 mph /  19.6 km/h 19.6 mph /  31.5 km/h 71 % 0.00 in /  0 mm
00:22 45.6 °F /  7.6 °C 37.1 °F /  2.8 °C 29.87 in /  1011.4 hPa West 4.4 mph /  7.1 km/h 11.5 mph /  18.5 km/h 72 % 0.00 in /  0 mm
00:27 45.5 °F /  7.5 °C 36.6 °F /  2.6 °C 29.87 in /  1011.4 hPa North 5.0 mph /  8 km/h 16.1 mph /  25.9 km/h 71 % 0.00 in /  0 mm
00:32 45.4 °F /  7.4 °C 36.9 °F /  2.7 °C 29.87 in /  1011.4 hPa WNW 4.6 mph /  7.4 km/h 9.2 mph /  14.8 km/h 72 % 0.00 in /  0 mm
00:37 45.3 °F /  7.4 °C 36.8 °F /  2.7 °C 29.87 in /  1011.4 hPa WNW 5.6 mph /  9 km/h 18.0 mph /  29 km/h 72 % 0.00 in /  0 mm
00:42 45.2 °F /  7.3 °C 36.7 °F /  2.6 °C 29.87 in /  1011.4 hPa West 9.9 mph /  15.9 km/h 16.1 mph /  25.9 km/h 72 % 0.00 in /  0 mm
00:47 45.2 °F /  7.3 °C 36.7 °F /  2.6 °C 29.87 in /  1011.4 hPa West 3.4 mph /  5.5 km/h 9.0 mph /  14.5 km/h 72 % 0.00 in /  0 mm
00:52 45.1 °F /  7.3 °C 37.0 °F /  2.8 °C 29.87 in /  1011.4 hPa WNW 9.7 mph /  15.6 km/h 17.3 mph /  27.8 km/h 73 % 0.00 in /  0 mm
00:57 45.0 °F /  7.2 °C 36.5 °F /  2.5 °C 29.87 in /  1011.4 hPa WNW 8.0 mph /  12.9 km/h 13.8 mph /  22.2 km/h 72 % 0.00 in /  0 mm
01:02 44.9 °F /  7.2 °C 36.4 °F /  2.4 °C 29.88 in /  1011.7 hPa West 4.0 mph /  6.4 km/h 9.2 mph /  14.8 km/h 72 % 0.00 in /  0 mm
01:08 44.8 °F /  7.1 °C 36.3 °F /  2.4 °C 29.88 in /  1011.7 hPa West 6.7 mph /  10.8 km/h 15.0 mph /  24.1 km/h 72 % 0.00 in /  0 mm
01:13 44.7 °F /  7.1 °C 36.2 °F /  2.3 °C 29.88 in /  1011.7 hPa West 7.9 mph /  12.7 km/h 11.5 mph /  18.5 km/h 72 % 0.00 in /  0 mm
01:18 44.7 °F /  7.1 °C 36.2 °F /  2.3 °C 29.88 in /  1011.7 hPa SSW 6.2 mph /  10 km/h 9.2 mph /  14.8 km/h 72 % 0.00 in /  0 mm
01:23 44.6 °F /  7 °C 36.1 °F /  2.3 °C 29.88 in /  1011.7 hPa West 9.7 mph /  15.6 km/h 18.0 mph /  29 km/h 72 % 0.00 in /  0 mm
01:28 44.5 °F /  6.9 °C 36.4 °F /  2.4 °C 29.88 in /  1011.7 hPa West 6.9 mph /  11.1 km/h 12.7 mph /  20.4 km/h 73 % 0.00 in /  0 mm
01:33 44.5 °F /  6.9 °C 36.0 °F /  2.2 °C 29.88 in /  1011.7 hPa West 6.3 mph /  10.1 km/h 13.8 mph /  22.2 km/h 72 % 0.00 in /  0 mm
01:38 44.4 °F /  6.9 °C 35.9 °F /  2.2 °C 29.88 in /  1011.7 hPa WNW 8.5 mph /  13.7 km/h 15.0 mph /  24.1 km/h 72 % 0.00 in /  0 mm
01:43 44.4 °F /  6.9 °C 35.9 °F /  2.2 °C 29.88 in /  1011.7 hPa WNW 7.0 mph /  11.3 km/h 17.3 mph /  27.8 km/h 72 % 0.00 in /  0 mm
01:48 44.3 °F /  6.8 °C 35.1 °F /  1.7 °C 29.89 in /  1012.1 hPa NW 10.4 mph /  16.7 km/h 19.6 mph /  31.5 km/h 70 % 0.00 in /  0 mm
01:53 44.3 °F /  6.8 °C 35.1 °F /  1.7 °C 29.92 in /  1013.1 hPa WSW 7.8 mph /  12.6 km/h 16.1 mph /  25.9 km/h 70 % 0.00 in /  0 mm
01:58 44.3 °F /  6.8 °C 35.1 °F /  1.7 °C 29.92 in /  1013.1 hPa NW 6.6 mph /  10.6 km/h 16.1 mph /  25.9 km/h 70 % 0.00 in /  0 mm
02:03 44.2 °F /  6.8 °C 35.0 °F /  1.7 °C 29.92 in /  1013.1 hPa West 7.3 mph /  11.7 km/h 15.0 mph /  24.1 km/h 70 % 0.00 in /  0 mm
02:08 44.1 °F /  6.7 °C 34.6 °F /  1.4 °C 29.92 in /  1013.1 hPa NW 5.5 mph /  8.9 km/h 13.8 mph /  22.2 km/h 69 % 0.00 in /  0 mm
02:13 44.1 °F /  6.7 °C 34.2 °F /  1.2 °C 29.92 in /  1013.1 hPa West 10.3 mph /  16.6 km/h 24.2 mph /  38.9 km/h 68 % 0.00 in /  0 mm
02:18 44.0 °F /  6.7 °C 34.1 °F /  1.2 °C 29.93 in /  1013.4 hPa North 5.9 mph /  9.5 km/h 11.5 mph /  18.5 km/h 68 % 0.00 in /  0 mm
02:23 43.9 °F /  6.6 °C 34.0 °F /  1.1 °C 29.92 in /  1013.1 hPa West 8.7 mph /  14 km/h 12.7 mph /  20.4 km/h 68 % 0.00 in /  0 mm
02:28 43.8 °F /  6.6 °C 34.3 °F /  1.3 °C 29.92 in /  1013.1 hPa SW 10.3 mph /  16.6 km/h 18.4 mph /  29.6 km/h 69 % 0.00 in /  0 mm
02:33 43.8 °F /  6.6 °C 34.3 °F /  1.3 °C 29.93 in /  1013.4 hPa SSW 5.4 mph /  8.7 km/h 10.4 mph /  16.7 km/h 69 % 0.00 in /  0 mm
02:34 43.8 °F /  6.6 °C 34.3 °F /  1.3 °C 29.93 in /  1013.4 hPa SW 10.0 mph /  16.1 km/h 19.6 mph /  31.5 km/h 69 % 0.00 in /  0 mm
02:39 43.7 °F /  6.5 °C 34.2 °F /  1.2 °C 29.93 in /  1013.4 hPa West 5.4 mph /  8.7 km/h 11.5 mph /  18.5 km/h 69 % 0.00 in /  0 mm
02:44 43.7 °F /  6.5 °C 34.2 °F /  1.2 °C 29.93 in /  1013.4 hPa West 6.8 mph /  10.9 km/h 16.1 mph /  25.9 km/h 69 % 0.00 in /  0 mm
02:49 43.6 °F /  6.4 °C 34.1 °F /  1.2 °C 29.93 in /  1013.4 hPa NNW 9.5 mph /  15.3 km/h 17.3 mph /  27.8 km/h 69 % 0.00 in /  0 mm
02:54 43.6 °F /  6.4 °C 33.7 °F /  0.9 °C 29.94 in /  1013.8 hPa SW 10.0 mph /  16.1 km/h 15.0 mph /  24.1 km/h 68 % 0.00 in /  0 mm
02:59 43.6 °F /  6.4 °C 34.1 °F /  1.2 °C 29.93 in /  1013.4 hPa NW 7.5 mph /  12.1 km/h 15.0 mph /  24.1 km/h 69 % 0.00 in /  0 mm
03:04 43.6 °F /  6.4 °C 33.7 °F /  0.9 °C 29.93 in /  1013.4 hPa NNW 7.7 mph /  12.4 km/h 16.1 mph /  25.9 km/h 68 % 0.00 in /  0 mm
03:09 43.6 °F /  6.4 °C 33.7 °F /  0.9 °C 29.94 in /  1013.8 hPa WNW 6.5 mph /  10.5 km/h 16.1 mph /  25.9 km/h 68 % 0.00 in /  0 mm
03:14 43.6 °F /  6.4 °C 33.7 °F /  0.9 °C 29.94 in /  1013.8 hPa NW 7.9 mph /  12.7 km/h 16.1 mph /  25.9 km/h 68 % 0.00 in /  0 mm
03:19 43.7 °F /  6.5 °C 33.5 °F /  0.8 °C 29.94 in /  1013.8 hPa NW 9.9 mph /  15.9 km/h 16.1 mph /  25.9 km/h 67 % 0.00 in /  0 mm
03:24 43.7 °F /  6.5 °C 33.5 °F /  0.8 °C 29.95 in /  1014.1 hPa SW 10.9 mph /  17.5 km/h 19.6 mph /  31.5 km/h 67 % 0.00 in /  0 mm
03:29 43.8 °F /  6.6 °C 33.2 °F /  0.7 °C 29.95 in /  1014.1 hPa WNW 8.4 mph /  13.5 km/h 16.1 mph /  25.9 km/h 66 % 0.00 in /  0 mm
03:39 43.8 °F /  6.6 °C 33.6 °F /  0.9 °C 29.95 in /  1014.1 hPa NNW 7.8 mph /  12.6 km/h 13.8 mph /  22.2 km/h 67 % 0.00 in /  0 mm
03:44 43.8 °F /  6.6 °C 33.6 °F /  0.9 °C 29.95 in /  1014.1 hPa NNW 8.1 mph /  13 km/h 12.7 mph /  20.4 km/h 67 % 0.00 in /  0 mm
03:49 43.7 °F /  6.5 °C 32.7 °F /  0.4 °C 29.95 in /  1014.1 hPa WNW 9.3 mph /  15 km/h 17.3 mph /  27.8 km/h 65 % 0.00 in /  0 mm
03:54 43.7 °F /  6.5 °C 32.7 °F /  0.4 °C 29.94 in /  1013.8 hPa NNE 4.3 mph /  6.9 km/h 12.7 mph /  20.4 km/h 65 % 0.00 in /  0 mm
03:59 43.7 °F /  6.5 °C 32.7 °F /  0.4 °C 29.95 in /  1014.1 hPa West 10.1 mph /  16.3 km/h 16.1 mph /  25.9 km/h 65 % 0.00 in /  0 mm
04:04 43.7 °F /  6.5 °C 33.1 °F /  0.6 °C 29.95 in /  1014.1 hPa WNW 9.9 mph /  15.9 km/h 23.0 mph /  37 km/h 66 % 0.00 in /  0 mm
04:09 43.6 °F /  6.4 °C 33.0 °F /  0.6 °C 29.95 in /  1014.1 hPa WNW 7.7 mph /  12.4 km/h 13.8 mph /  22.2 km/h 66 % 0.00 in /  0 mm
04:14 43.6 °F /  6.4 °C 33.4 °F /  0.8 °C 29.96 in /  1014.4 hPa West 6.2 mph /  10 km/h 12.0 mph /  19.3 km/h 67 % 0.00 in /  0 mm
04:19 43.5 °F /  6.4 °C 32.5 °F /  0.3 °C 29.96 in /  1014.4 hPa NW 10.1 mph /  16.3 km/h 16.1 mph /  25.9 km/h 65 % 0.00 in /  0 mm
04:24 43.4 °F /  6.3 °C 32.4 °F /  0.2 °C 29.96 in /  1014.4 hPa WNW 6.7 mph /  10.8 km/h 11.5 mph /  18.5 km/h 65 % 0.00 in /  0 mm
04:29 43.3 °F /  6.3 °C 32.3 °F /  0.2 °C 29.97 in /  1014.8 hPa NNE 4.9 mph /  7.9 km/h 11.5 mph /  18.5 km/h 65 % 0.00 in /  0 mm
04:34 43.3 °F /  6.3 °C 32.3 °F /  0.2 °C 29.97 in /  1014.8 hPa WNW 7.2 mph /  11.6 km/h 17.3 mph /  27.8 km/h 65 % 0.00 in /  0 mm
04:39 43.2 °F /  6.2 °C 32.2 °F /  0.1 °C 29.97 in /  1014.8 hPa NNW 11.2 mph /  18 km/h 15.0 mph /  24.1 km/h 65 % 0.00 in /  0 mm
04:44 43.2 °F /  6.2 °C 32.2 °F /  0.1 °C 29.98 in /  1015.1 hPa WNW 7.6 mph /  12.2 km/h 11.5 mph /  18.5 km/h 65 % 0.00 in /  0 mm
04:49 43.2 °F /  6.2 °C 32.6 °F /  0.3 °C 29.98 in /  1015.1 hPa West 5.2 mph /  8.4 km/h 6.9 mph /  11.1 km/h 66 % 0.00 in /  0 mm
04:55 43.1 °F /  6.2 °C 32.1 °F /  0.1 °C 29.98 in /  1015.1 hPa West 9.3 mph /  15 km/h 16.1 mph /  25.9 km/h 65 % 0.00 in /  0 mm
05:00 43.0 °F /  6.1 °C 32.0 °F /  0 °C 29.99 in /  1015.5 hPa NNW 7.7 mph /  12.4 km/h 17.3 mph /  27.8 km/h 65 % 0.00 in /  0 mm
05:05 42.9 °F /  6.1 °C 31.9 °F /  -0.1 °C 29.98 in /  1015.1 hPa West 8.0 mph /  12.9 km/h 19.6 mph /  31.5 km/h 65 % 0.00 in /  0 mm
05:10 42.8 °F /  6 °C 32.2 °F /  0.1 °C 29.98 in /  1015.1 hPa NW 6.3 mph /  10.1 km/h 12.7 mph /  20.4 km/h 66 % 0.00 in /  0 mm
05:15 42.7 °F /  5.9 °C 32.1 °F /  0.1 °C 29.98 in /  1015.1 hPa WNW 6.0 mph /  9.7 km/h 12.0 mph /  19.3 km/h 66 % 0.00 in /  0 mm
05:20 42.7 °F /  5.9 °C 32.5 °F /  0.3 °C 29.98 in /  1015.1 hPa WNW 5.2 mph /  8.4 km/h 12.7 mph /  20.4 km/h 67 % 0.00 in /  0 mm
05:25 42.5 °F /  5.8 °C 31.6 °F /  -0.2 °C 29.98 in /  1015.1 hPa West 11.4 mph /  18.3 km/h 19.6 mph /  31.5 km/h 65 % 0.00 in /  0 mm
05:30 42.5 °F /  5.8 °C 31.6 °F /  -0.2 °C 29.99 in /  1015.5 hPa WSW 9.9 mph /  15.9 km/h 19.0 mph /  30.6 km/h 65 % 0.00 in /  0 mm
05:35 42.5 °F /  5.8 °C 32.3 °F /  0.2 °C 29.99 in /  1015.5 hPa NNW 8.3 mph /  13.4 km/h 19.6 mph /  31.5 km/h 67 % 0.00 in /  0 mm
05:40 42.4 °F /  5.8 °C 31.5 °F /  -0.3 °C 29.99 in /  1015.5 hPa West 9.4 mph /  15.1 km/h 18.4 mph /  29.6 km/h 65 % 0.00 in /  0 mm
05:45 42.3 °F /  5.7 °C 31.7 °F /  -0.2 °C 29.99 in /  1015.5 hPa North 8.2 mph /  13.2 km/h 14.0 mph /  22.5 km/h 66 % 0.00 in /  0 mm
05:50 42.3 °F /  5.7 °C 31.4 °F /  -0.3 °C 29.99 in /  1015.5 hPa West 6.8 mph /  10.9 km/h 13.8 mph /  22.2 km/h 65 % 0.00 in /  0 mm
05:55 42.2 °F /  5.7 °C 31.6 °F /  -0.2 °C 29.99 in /  1015.5 hPa WNW 11.3 mph /  18.2 km/h 16.1 mph /  25.9 km/h 66 % 0.00 in /  0 mm
06:00 42.2 °F /  5.7 °C 31.6 °F /  -0.2 °C 30.00 in /  1015.8 hPa West 7.7 mph /  12.4 km/h 17.3 mph /  27.8 km/h 66 % 0.00 in /  0 mm
06:05 42.1 °F /  5.6 °C 31.6 °F /  -0.2 °C 30.00 in /  1015.8 hPa NW 8.5 mph /  13.7 km/h 13.8 mph /  22.2 km/h 66 % 0.00 in /  0 mm
06:10 42.1 °F /  5.6 °C 31.6 °F /  -0.2 °C 30.01 in /  1016.1 hPa WNW 7.3 mph /  11.7 km/h 11.5 mph /  18.5 km/h 66 % 0.00 in /  0 mm
06:16 42.0 °F /  5.6 °C 31.5 °F /  -0.3 °C 30.01 in /  1016.1 hPa WNW 8.6 mph /  13.8 km/h 16.1 mph /  25.9 km/h 66 % 0.00 in /  0 mm
06:21 42.0 °F /  5.6 °C 31.5 °F /  -0.3 °C 30.01 in /  1016.1 hPa West 8.0 mph /  12.9 km/h 18.0 mph /  29 km/h 66 % 0.00 in /  0 mm
06:26 42.0 °F /  5.6 °C 32.2 °F /  0.1 °C 30.01 in /  1016.1 hPa WNW 6.0 mph /  9.7 km/h 17.0 mph /  27.4 km/h 68 % 0.00 in /  0 mm
06:31 41.9 °F /  5.5 °C 31.4 °F /  -0.3 °C 30.01 in /  1016.1 hPa WSW 10.9 mph /  17.5 km/h 18.4 mph /  29.6 km/h 66 % 0.00 in /  0 mm
06:36 41.9 °F /  5.5 °C 31.0 °F /  -0.6 °C 30.01 in /  1016.1 hPa WNW 7.0 mph /  11.3 km/h 17.0 mph /  27.4 km/h 65 % 0.00 in /  0 mm
06:41 41.8 °F /  5.4 °C 31.3 °F /  -0.4 °C 30.02 in /  1016.5 hPa WNW 8.0 mph /  12.9 km/h 20.0 mph /  32.2 km/h 66 % 0.00 in /  0 mm
06:46 41.8 °F /  5.4 °C 31.6 °F /  -0.2 °C 30.01 in /  1016.1 hPa WNW 2.0 mph /  3.2 km/h 12.0 mph /  19.3 km/h 67 % 0.00 in /  0 mm
06:51 41.8 °F /  5.4 °C 31.3 °F /  -0.4 °C 30.01 in /  1016.1 hPa West 12.0 mph /  19.3 km/h 20.0 mph /  32.2 km/h 66 % 0.00 in /  0 mm
06:56 41.7 °F /  5.4 °C 31.5 °F /  -0.3 °C 30.02 in /  1016.5 hPa WNW 8.0 mph /  12.9 km/h 16.0 mph /  25.7 km/h 67 % 0.00 in /  0 mm
07:01 41.6 °F /  5.3 °C 32.2 °F /  0.1 °C 30.02 in /  1016.5 hPa West 6.0 mph /  9.7 km/h 11.5 mph /  18.5 km/h 69 % 0.00 in /  0 mm
07:06 41.5 °F /  5.3 °C 31.4 °F /  -0.3 °C 30.02 in /  1016.5 hPa WNW 9.6 mph /  15.4 km/h 18.4 mph /  29.6 km/h 67 % 0.00 in /  0 mm
07:11 41.5 °F /  5.3 °C 32.1 °F /  0.1 °C 30.03 in /  1016.8 hPa North 5.9 mph /  9.5 km/h 15.0 mph /  24.1 km/h 69 % 0.00 in /  0 mm
07:16 41.5 °F /  5.3 °C 32.4 °F /  0.2 °C 30.03 in /  1016.8 hPa WNW 1.8 mph /  2.9 km/h 8.1 mph /  13 km/h 70 % 0.00 in /  0 mm
07:21 41.4 °F /  5.2 °C 31.6 °F /  -0.2 °C 30.03 in /  1016.8 hPa West 11.2 mph /  18 km/h 19.6 mph /  31.5 km/h 68 % 0.00 in /  0 mm
07:26 41.4 °F /  5.2 °C 31.6 °F /  -0.2 °C 30.03 in /  1016.8 hPa NW 8.2 mph /  13.2 km/h 17.3 mph /  27.8 km/h 68 % 0.00 in /  0 mm
07:31 41.4 °F /  5.2 °C 31.6 °F /  -0.2 °C 30.03 in /  1016.8 hPa NW 9.4 mph /  15.1 km/h 15.0 mph /  24.1 km/h 68 % 0.00 in /  0 mm
07:36 41.3 °F /  5.2 °C 31.5 °F /  -0.3 °C 30.04 in /  1017.2 hPa WNW 8.7 mph /  14 km/h 13.8 mph /  22.2 km/h 68 % 0.00 in /  0 mm
07:41 41.3 °F /  5.2 °C 31.9 °F /  -0.1 °C 30.04 in /  1017.2 hPa NNW 4.1 mph /  6.6 km/h 9.0 mph /  14.5 km/h 69 % 0.00 in /  0 mm
07:46 41.3 °F /  5.2 °C 31.9 °F /  -0.1 °C 30.05 in /  1017.5 hPa WSW 4.0 mph /  6.4 km/h 6.0 mph /  9.7 km/h 69 % 0.00 in /  0 mm
07:51 41.3 °F /  5.2 °C 31.5 °F /  -0.3 °C 30.05 in /  1017.5 hPa NW 5.5 mph /  8.9 km/h 11.5 mph /  18.5 km/h 68 % 0.00 in /  0 mm
07:56 41.4 °F /  5.2 °C 32.0 °F /  0 °C 30.05 in /  1017.5 hPa West 7.6 mph /  12.2 km/h 13.8 mph /  22.2 km/h 69 % 0.00 in /  0 mm
08:01 41.4 °F /  5.2 °C 32.3 °F /  0.2 °C 30.05 in /  1017.5 hPa NW 4.9 mph /  7.9 km/h 11.5 mph /  18.5 km/h 70 % 0.00 in /  0 mm
08:06 41.5 °F /  5.3 °C 31.7 °F /  -0.2 °C 30.05 in /  1017.5 hPa WNW 3.8 mph /  6.1 km/h 9.2 mph /  14.8 km/h 68 % 0.00 in /  0 mm
08:11 41.6 °F /  5.3 °C 32.2 °F /  0.1 °C 30.05 in /  1017.5 hPa NNW 4.2 mph /  6.8 km/h 11.5 mph /  18.5 km/h 69 % 0.00 in /  0 mm
08:16 41.8 °F /  5.4 °C 32.0 °F /  0 °C 30.05 in /  1017.5 hPa NNE 7.0 mph /  11.3 km/h 13.8 mph /  22.2 km/h 68 % 0.00 in /  0 mm
08:21 41.9 °F /  5.5 °C 31.7 °F /  -0.2 °C 30.05 in /  1017.5 hPa WNW 7.2 mph /  11.6 km/h 11.0 mph /  17.7 km/h 67 % 0.00 in /  0 mm
08:27 42.1 °F /  5.6 °C 31.9 °F /  -0.1 °C 30.06 in /  1017.8 hPa West 7.3 mph /  11.7 km/h 11.5 mph /  18.5 km/h 67 % 0.00 in /  0 mm
08:32 42.2 °F /  5.7 °C 31.6 °F /  -0.2 °C 30.06 in /  1017.8 hPa NW 6.1 mph /  9.8 km/h 18.4 mph /  29.6 km/h 66 % 0.00 in /  0 mm
08:36 42.3 °F /  5.7 °C 32.1 °F /  0.1 °C 30.06 in /  1017.8 hPa NW 6.8 mph /  10.9 km/h 12.7 mph /  20.4 km/h 67 % 0.00 in /  0 mm
08:41 42.5 °F /  5.8 °C 31.9 °F /  -0.1 °C 30.06 in /  1017.8 hPa WNW 6.0 mph /  9.7 km/h 12.7 mph /  20.4 km/h 66 % 0.00 in /  0 mm
08:47 42.7 °F /  5.9 °C 32.5 °F /  0.3 °C 30.06 in /  1017.8 hPa NW 4.3 mph /  6.9 km/h 13.8 mph /  22.2 km/h 67 % 0.00 in /  0 mm
08:52 43.0 °F /  6.1 °C 32.0 °F /  0 °C 30.06 in /  1017.8 hPa West 8.3 mph /  13.4 km/h 17.3 mph /  27.8 km/h 65 % 0.00 in /  0 mm
08:57 43.2 °F /  6.2 °C 31.4 °F /  -0.3 °C 30.06 in /  1017.8 hPa NNW 7.1 mph /  11.4 km/h 15.0 mph /  24.1 km/h 63 % 0.00 in /  0 mm
09:02 43.6 °F /  6.4 °C 32.6 °F /  0.3 °C 30.06 in /  1017.8 hPa West 4.7 mph /  7.6 km/h 10.4 mph /  16.7 km/h 65 % 0.00 in /  0 mm
09:07 44.0 °F /  6.7 °C 32.2 °F /  0.1 °C 30.07 in /  1018.2 hPa NW 5.8 mph /  9.3 km/h 11.5 mph /  18.5 km/h 63 % 0.00 in /  0 mm
09:12 44.4 °F /  6.9 °C 33.0 °F /  0.6 °C 30.07 in /  1018.2 hPa WNW 3.9 mph /  6.3 km/h 15.0 mph /  24.1 km/h 64 % 0.00 in /  0 mm
09:17 44.6 °F /  7 °C 32.0 °F /  0 °C 30.07 in /  1018.2 hPa WNW 4.0 mph /  6.4 km/h 11.5 mph /  18.5 km/h 61 % 0.00 in /  0 mm
09:22 44.9 °F /  7.2 °C 32.7 °F /  0.4 °C 30.07 in /  1018.2 hPa NW 2.8 mph /  4.5 km/h 9.2 mph /  14.8 km/h 62 % 0.00 in /  0 mm
09:23 45.0 °F /  7.2 °C 33.2 °F /  0.7 °C 30.07 in /  1018.2 hPa NW 6.4 mph /  10.3 km/h 9.2 mph /  14.8 km/h 63 % 0.00 in /  0 mm
09:28 45.4 °F /  7.4 °C 32.7 °F /  0.4 °C 30.07 in /  1018.2 hPa NNW 5.8 mph /  9.3 km/h 9.2 mph /  14.8 km/h 61 % 0.00 in /  0 mm
09:33 45.6 °F /  7.6 °C 32.1 °F /  0.1 °C 30.08 in /  1018.5 hPa NW 4.9 mph /  7.9 km/h 8.1 mph /  13 km/h 59 % 0.00 in /  0 mm
09:38 45.9 °F /  7.7 °C 31.9 °F /  -0.1 °C 30.07 in /  1018.2 hPa NNW 4.4 mph /  7.1 km/h 11.5 mph /  18.5 km/h 58 % 0.00 in /  0 mm
09:43 46.3 °F /  7.9 °C 33.6 °F /  0.9 °C 30.07 in /  1018.2 hPa NNE 4.7 mph /  7.6 km/h 9.0 mph /  14.5 km/h 61 % 0.00 in /  0 mm
09:49 46.7 °F /  8.2 °C 33.5 °F /  0.8 °C 30.07 in /  1018.2 hPa NNW 5.7 mph /  9.2 km/h 11.5 mph /  18.5 km/h 60 % 0.00 in /  0 mm
09:54 47.0 °F /  8.3 °C 34.2 °F /  1.2 °C 30.07 in /  1018.2 hPa WNW 2.9 mph /  4.7 km/h 9.2 mph /  14.8 km/h 61 % 0.00 in /  0 mm
09:59 47.3 °F /  8.5 °C 33.3 °F /  0.7 °C 30.08 in /  1018.5 hPa NW 3.6 mph /  5.8 km/h 11.5 mph /  18.5 km/h 58 % 0.00 in /  0 mm
10:04 47.6 °F /  8.7 °C 33.5 °F /  0.8 °C 30.08 in /  1018.5 hPa NNW 3.4 mph /  5.5 km/h 6.9 mph /  11.1 km/h 58 % 0.00 in /  0 mm
10:09 47.8 °F /  8.8 °C 32.4 °F /  0.2 °C 30.07 in /  1018.2 hPa West 6.6 mph /  10.6 km/h 12.7 mph /  20.4 km/h 55 % 0.00 in /  0 mm
10:14 47.8 °F /  8.8 °C 32.4 °F /  0.2 °C 30.07 in /  1018.2 hPa NW 3.9 mph /  6.3 km/h 11.5 mph /  18.5 km/h 55 % 0.00 in /  0 mm
10:19 47.8 °F /  8.8 °C 32.4 °F /  0.2 °C 30.08 in /  1018.5 hPa West 5.4 mph /  8.7 km/h 10.4 mph /  16.7 km/h 55 % 0.00 in /  0 mm
10:21 47.8 °F /  8.8 °C 31.9 °F /  -0.1 °C 30.07 in /  1018.2 hPa WNW 9.0 mph /  14.5 km/h 16.0 mph /  25.7 km/h 54 % 0.00 in /  0 mm
10:26 47.6 °F /  8.7 °C 32.2 °F /  0.1 °C 30.08 in /  1018.5 hPa WNW 8.0 mph /  12.9 km/h 15.0 mph /  24.1 km/h 55 % 0.00 in /  0 mm
10:31 47.6 °F /  8.7 °C 32.7 °F /  0.4 °C 30.07 in /  1018.2 hPa WNW 7.0 mph /  11.3 km/h 12.0 mph /  19.3 km/h 56 % 0.00 in /  0 mm
10:36 47.5 °F /  8.6 °C 33.0 °F /  0.6 °C 30.07 in /  1018.2 hPa WNW 5.0 mph /  8 km/h 17.0 mph /  27.4 km/h 57 % 0.00 in /  0 mm
10:41 47.5 °F /  8.6 °C 32.1 °F /  0.1 °C 30.07 in /  1018.2 hPa NW 6.0 mph /  9.7 km/h 13.0 mph /  20.9 km/h 55 % 0.00 in /  0 mm
10:46 47.3 °F /  8.5 °C 32.4 °F /  0.2 °C 30.07 in /  1018.2 hPa NW 7.0 mph /  11.3 km/h 15.0 mph /  24.1 km/h 56 % 0.00 in /  0 mm
10:51 47.0 °F /  8.3 °C 32.1 °F /  0.1 °C 30.07 in /  1018.2 hPa WNW 6.0 mph /  9.7 km/h 15.0 mph /  24.1 km/h 56 % 0.00 in /  0 mm
10:56 46.8 °F /  8.2 °C 32.4 °F /  0.2 °C 30.06 in /  1017.8 hPa NW 2.8 mph /  4.5 km/h 11.5 mph /  18.5 km/h 57 % 0.00 in /  0 mm
11:01 46.6 °F /  8.1 °C 31.7 °F /  -0.2 °C 30.06 in /  1017.8 hPa NNW 3.9 mph /  6.3 km/h 12.7 mph /  20.4 km/h 56 % 0.00 in /  0 mm
11:06 46.4 °F /  8 °C 32.0 °F /  0 °C 30.06 in /  1017.8 hPa WNW 2.9 mph /  4.7 km/h 10.0 mph /  16.1 km/h 57 % 0.00 in /  0 mm
11:16 46.0 °F /  7.8 °C 31.6 °F /  -0.2 °C 30.06 in /  1017.8 hPa NW 6.0 mph /  9.7 km/h 14.0 mph /  22.5 km/h 57 % 0.00 in /  0 mm
11:21 45.9 °F /  7.7 °C 31.9 °F /  -0.1 °C 30.05 in /  1017.5 hPa NW 3.0 mph /  4.8 km/h 10.0 mph /  16.1 km/h 58 % 0.00 in /  0 mm
11:26 45.8 °F /  7.7 °C 31.5 °F /  -0.3 °C 30.05 in /  1017.5 hPa WNW 8.0 mph /  12.9 km/h 14.0 mph /  22.5 km/h 57 % 0.00 in /  0 mm
11:31 45.8 °F /  7.7 °C 31.9 °F /  -0.1 °C 30.05 in /  1017.5 hPa WNW 6.0 mph /  9.7 km/h 15.0 mph /  24.1 km/h 58 % 0.00 in /  0 mm
11:36 45.7 °F /  7.6 °C 31.3 °F /  -0.4 °C 30.05 in /  1017.5 hPa WNW 6.0 mph /  9.7 km/h 20.0 mph /  32.2 km/h 57 % 0.00 in /  0 mm
11:41 45.6 °F /  7.6 °C 31.7 °F /  -0.2 °C 30.05 in /  1017.5 hPa WNW 5.0 mph /  8 km/h 12.0 mph /  19.3 km/h 58 % 0.00 in /  0 mm
11:46 45.7 °F /  7.6 °C 31.3 °F /  -0.4 °C 30.05 in /  1017.5 hPa WNW 6.0 mph /  9.7 km/h 13.0 mph /  20.9 km/h 57 % 0.00 in /  0 mm
11:51 45.7 °F /  7.6 °C 31.3 °F /  -0.4 °C 30.05 in /  1017.5 hPa West 6.0 mph /  9.7 km/h 12.0 mph /  19.3 km/h 57 % 0.00 in /  0 mm
11:56 45.8 °F /  7.7 °C 31.9 °F /  -0.1 °C 30.04 in /  1017.2 hPa West 4.1 mph /  6.6 km/h 8.0 mph /  12.9 km/h 58 % 0.00 in /  0 mm
12:01 45.9 °F /  7.7 °C 31.1 °F /  -0.5 °C 30.04 in /  1017.2 hPa West 6.2 mph /  10 km/h 11.5 mph /  18.5 km/h 56 % 0.00 in /  0 mm
12:02 45.9 °F /  7.7 °C 30.6 °F /  -0.8 °C 30.04 in /  1017.2 hPa WSW 3.5 mph /  5.6 km/h 11.5 mph /  18.5 km/h 55 % 0.00 in /  0 mm
12:07 45.9 °F /  7.7 °C 31.1 °F /  -0.5 °C 30.04 in /  1017.2 hPa West 4.5 mph /  7.2 km/h 9.2 mph /  14.8 km/h 56 % 0.00 in /  0 mm
12:12 46.0 °F /  7.8 °C 31.2 °F /  -0.4 °C 30.04 in /  1017.2 hPa West 2.7 mph /  4.3 km/h 9.2 mph /  14.8 km/h 56 % 0.00 in /  0 mm
12:17 46.1 °F /  7.8 °C 31.3 °F /  -0.4 °C 30.04 in /  1017.2 hPa WNW 7.9 mph /  12.7 km/h 10.4 mph /  16.7 km/h 56 % 0.00 in /  0 mm
12:22 46.2 °F /  7.9 °C 30.9 °F /  -0.6 °C 30.04 in /  1017.2 hPa WNW 7.0 mph /  11.3 km/h 12.7 mph /  20.4 km/h 55 % 0.00 in /  0 mm
12:28 46.3 °F /  7.9 °C 30.1 °F /  -1.1 °C 30.04 in /  1017.2 hPa West 7.2 mph /  11.6 km/h 10.4 mph /  16.7 km/h 53 % 0.00 in /  0 mm
12:33 46.4 °F /  8 °C 30.6 °F /  -0.8 °C 30.04 in /  1017.2 hPa WNW 6.6 mph /  10.6 km/h 15.0 mph /  24.1 km/h 54 % 0.00 in /  0 mm
12:38 46.5 °F /  8.1 °C 30.3 °F /  -0.9 °C 30.04 in /  1017.2 hPa WNW 7.7 mph /  12.4 km/h 13.0 mph /  20.9 km/h 53 % 0.00 in /  0 mm
12:43 46.5 °F /  8.1 °C 31.2 °F /  -0.4 °C 30.05 in /  1017.5 hPa NW 2.4 mph /  3.9 km/h 5.0 mph /  8 km/h 55 % 0.00 in /  0 mm
12:48 46.6 °F /  8.1 °C 31.3 °F /  -0.4 °C 30.05 in /  1017.5 hPa SW 3.9 mph /  6.3 km/h 11.5 mph /  18.5 km/h 55 % 0.00 in /  0 mm
12:53 46.8 °F /  8.2 °C 31.5 °F /  -0.3 °C 30.05 in /  1017.5 hPa WNW 4.7 mph /  7.6 km/h 8.1 mph /  13 km/h 55 % 0.00 in /  0 mm
12:58 46.9 °F /  8.3 °C 31.1 °F /  -0.5 °C 30.05 in /  1017.5 hPa WNW 7.2 mph /  11.6 km/h 15.0 mph /  24.1 km/h 54 % 0.00 in /  0 mm
13:03 47.0 °F /  8.3 °C 30.7 °F /  -0.7 °C 30.05 in /  1017.5 hPa West 8.3 mph /  13.4 km/h 10.4 mph /  16.7 km/h 53 % 0.00 in /  0 mm
13:08 47.2 °F /  8.4 °C 30.5 °F /  -0.8 °C 30.05 in /  1017.5 hPa WNW 4.0 mph /  6.4 km/h 12.7 mph /  20.4 km/h 52 % 0.00 in /  0 mm
13:13 47.4 °F /  8.6 °C 31.1 °F /  -0.5 °C 30.05 in /  1017.5 hPa West 7.2 mph /  11.6 km/h 15.0 mph /  24.1 km/h 53 % 0.00 in /  0 mm
13:18 47.7 °F /  8.7 °C 31.4 °F /  -0.3 °C 30.05 in /  1017.5 hPa WNW 5.0 mph /  8 km/h 8.1 mph /  13 km/h 53 % 0.00 in /  0 mm
13:23 48.0 °F /  8.9 °C 31.2 °F /  -0.4 °C 30.05 in /  1017.5 hPa West 6.9 mph /  11.1 km/h 12.7 mph /  20.4 km/h 52 % 0.00 in /  0 mm
13:28 48.2 °F /  9 °C 30.9 °F /  -0.6 °C 30.05 in /  1017.5 hPa WNW 4.6 mph /  7.4 km/h 15.0 mph /  24.1 km/h 51 % 0.00 in /  0 mm
13:33 48.4 °F /  9.1 °C 30.6 °F /  -0.8 °C 30.05 in /  1017.5 hPa WSW 7.2 mph /  11.6 km/h 13.8 mph /  22.2 km/h 50 % 0.00 in /  0 mm
13:38 48.5 °F /  9.2 °C 30.7 °F /  -0.7 °C 30.05 in /  1017.5 hPa West 8.3 mph /  13.4 km/h 11.5 mph /  18.5 km/h 50 % 0.00 in /  0 mm
13:43 48.6 °F /  9.2 °C 30.8 °F /  -0.7 °C 30.05 in /  1017.5 hPa WSW 7.4 mph /  11.9 km/h 15.0 mph /  24.1 km/h 50 % 0.00 in /  0 mm
13:48 48.7 °F /  9.3 °C 30.9 °F /  -0.6 °C 30.05 in /  1017.5 hPa SSW 3.6 mph /  5.8 km/h 9.2 mph /  14.8 km/h 50 % 0.00 in /  0 mm
13:53 48.7 °F /  9.3 °C 30.4 °F /  -0.9 °C 30.05 in /  1017.5 hPa WSW 8.5 mph /  13.7 km/h 12.0 mph /  19.3 km/h 49 % 0.00 in /  0 mm
13:58 48.7 °F /  9.3 °C 29.9 °F /  -1.2 °C 30.05 in /  1017.5 hPa WNW 6.6 mph /  10.6 km/h 15.0 mph /  24.1 km/h 48 % 0.00 in /  0 mm
14:03 48.7 °F /  9.3 °C 30.4 °F /  -0.9 °C 30.05 in /  1017.5 hPa NW 6.3 mph /  10.1 km/h 9.2 mph /  14.8 km/h 49 % 0.00 in /  0 mm
14:08 48.5 °F /  9.2 °C 29.2 °F /  -1.6 °C 30.05 in /  1017.5 hPa NW 5.7 mph /  9.2 km/h 12.7 mph /  20.4 km/h 47 % 0.00 in /  0 mm
14:13 48.4 °F /  9.1 °C 30.1 °F /  -1.1 °C 30.04 in /  1017.2 hPa SW 4.1 mph /  6.6 km/h 8.1 mph /  13 km/h 49 % 0.00 in /  0 mm
14:18 48.3 °F /  9.1 °C 29.0 °F /  -1.7 °C 30.05 in /  1017.5 hPa WNW 8.3 mph /  13.4 km/h 11.0 mph /  17.7 km/h 47 % 0.00 in /  0 mm
14:23 48.1 °F /  8.9 °C 29.3 °F /  -1.5 °C 30.04 in /  1017.2 hPa SW 5.3 mph /  8.5 km/h 9.2 mph /  14.8 km/h 48 % 0.00 in /  0 mm
14:28 47.9 °F /  8.8 °C 29.6 °F /  -1.3 °C 30.04 in /  1017.2 hPa West 6.7 mph /  10.8 km/h 11.5 mph /  18.5 km/h 49 % 0.00 in /  0 mm
14:33 47.7 °F /  8.7 °C 30.0 °F /  -1.1 °C 30.04 in /  1017.2 hPa WSW 7.3 mph /  11.7 km/h 13.0 mph /  20.9 km/h 50 % 0.00 in /  0 mm
14:38 47.6 °F /  8.7 °C 29.9 °F /  -1.2 °C 30.05 in /  1017.5 hPa West 6.6 mph /  10.6 km/h 10.4 mph /  16.7 km/h 50 % 0.00 in /  0 mm
14:44 47.5 °F /  8.6 °C 29.8 °F /  -1.2 °C 30.05 in /  1017.5 hPa NW 6.3 mph /  10.1 km/h 11.5 mph /  18.5 km/h 50 % 0.00 in /  0 mm
14:49 47.4 °F /  8.6 °C 29.7 °F /  -1.3 °C 30.05 in /  1017.5 hPa WSW 8.9 mph /  14.3 km/h 12.0 mph /  19.3 km/h 50 % 0.00 in /  0 mm
14:54 47.2 °F /  8.4 °C 29.5 °F /  -1.4 °C 30.05 in /  1017.5 hPa WSW 7.3 mph /  11.7 km/h 14.0 mph /  22.5 km/h 50 % 0.00 in /  0 mm
14:59 47.1 °F /  8.4 °C 28.9 °F /  -1.7 °C 30.05 in /  1017.5 hPa SW 9.2 mph /  14.8 km/h 17.3 mph /  27.8 km/h 49 % 0.00 in /  0 mm
15:00 47.1 °F /  8.4 °C 28.9 °F /  -1.7 °C 30.05 in /  1017.5 hPa WSW 8.0 mph /  12.9 km/h 16.1 mph /  25.9 km/h 49 % 0.00 in /  0 mm
15:05 46.9 °F /  8.3 °C 28.7 °F /  -1.8 °C 30.06 in /  1017.8 hPa West 10.8 mph /  17.4 km/h 23.0 mph /  37 km/h 49 % 0.00 in /  0 mm
15:10 46.9 °F /  8.3 °C 29.2 °F /  -1.6 °C 30.06 in /  1017.8 hPa WSW 6.4 mph /  10.3 km/h 11.5 mph /  18.5 km/h 50 % 0.00 in /  0 mm
15:15 46.8 °F /  8.2 °C 29.1 °F /  -1.6 °C 30.06 in /  1017.8 hPa WSW 5.1 mph /  8.2 km/h 11.5 mph /  18.5 km/h 50 % 0.00 in /  0 mm
15:20 46.7 °F /  8.2 °C 29.0 °F /  -1.7 °C 30.06 in /  1017.8 hPa NW 10.0 mph /  16.1 km/h 17.3 mph /  27.8 km/h 50 % 0.00 in /  0 mm
15:25 46.6 °F /  8.1 °C 29.4 °F /  -1.4 °C 30.06 in /  1017.8 hPa NW 6.1 mph /  9.8 km/h 18.0 mph /  29 km/h 51 % 0.00 in /  0 mm
15:30 46.5 °F /  8.1 °C 29.3 °F /  -1.5 °C 30.06 in /  1017.8 hPa WNW 8.3 mph /  13.4 km/h 17.3 mph /  27.8 km/h 51 % 0.00 in /  0 mm
15:35 46.4 °F /  8 °C 28.8 °F /  -1.8 °C 30.06 in /  1017.8 hPa West 4.9 mph /  7.9 km/h 9.2 mph /  14.8 km/h 50 % 0.00 in /  0 mm
15:40 46.3 °F /  7.9 °C 28.7 °F /  -1.8 °C 30.07 in /  1018.2 hPa WNW 6.3 mph /  10.1 km/h 11.5 mph /  18.5 km/h 50 % 0.00 in /  0 mm
15:45 46.2 °F /  7.9 °C 28.6 °F /  -1.9 °C 30.07 in /  1018.2 hPa NW 5.6 mph /  9 km/h 8.1 mph /  13 km/h 50 % 0.00 in /  0 mm
15:50 46.1 °F /  7.8 °C 28.5 °F /  -1.9 °C 30.06 in /  1017.8 hPa WNW 8.8 mph /  14.2 km/h 15.0 mph /  24.1 km/h 50 % 0.00 in /  0 mm
15:55 45.9 °F /  7.7 °C 28.3 °F /  -2.1 °C 30.07 in /  1018.2 hPa NW 5.2 mph /  8.4 km/h 11.5 mph /  18.5 km/h 50 % 0.00 in /  0 mm
16:00 45.8 °F /  7.7 °C 27.7 °F /  -2.4 °C 30.07 in /  1018.2 hPa West 6.7 mph /  10.8 km/h 17.3 mph /  27.8 km/h 49 % 0.00 in /  0 mm
16:05 45.6 °F /  7.6 °C 27.5 °F /  -2.5 °C 30.07 in /  1018.2 hPa WSW 7.5 mph /  12.1 km/h 15.0 mph /  24.1 km/h 49 % 0.00 in /  0 mm
16:10 45.6 °F /  7.6 °C 28.0 °F /  -2.2 °C 30.07 in /  1018.2 hPa West 7.5 mph /  12.1 km/h 13.8 mph /  22.2 km/h 50 % 0.00 in /  0 mm
16:15 45.5 °F /  7.5 °C 28.4 °F /  -2 °C 30.07 in /  1018.2 hPa WNW 6.1 mph /  9.8 km/h 12.7 mph /  20.4 km/h 51 % 0.00 in /  0 mm
16:20 45.5 °F /  7.5 °C 28.4 °F /  -2 °C 30.07 in /  1018.2 hPa West 3.0 mph /  4.8 km/h 5.8 mph /  9.3 km/h 51 % 0.00 in /  0 mm
16:25 45.4 °F /  7.4 °C 26.8 °F /  -2.9 °C 30.07 in /  1018.2 hPa West 7.5 mph /  12.1 km/h 16.1 mph /  25.9 km/h 48 % 0.00 in /  0 mm
16:30 45.3 °F /  7.4 °C 26.7 °F /  -2.9 °C 30.08 in /  1018.5 hPa West 4.8 mph /  7.7 km/h 8.1 mph /  13 km/h 48 % 0.00 in /  0 mm
16:35 45.2 °F /  7.3 °C 26.7 °F /  -2.9 °C 30.08 in /  1018.5 hPa WNW 7.6 mph /  12.2 km/h 13.8 mph /  22.2 km/h 48 % 0.00 in /  0 mm
16:40 45.2 °F /  7.3 °C 26.7 °F /  -2.9 °C 30.08 in /  1018.5 hPa WSW 3.5 mph /  5.6 km/h 6.0 mph /  9.7 km/h 48 % 0.00 in /  0 mm
16:45 45.1 °F /  7.3 °C 26.6 °F /  -3 °C 30.08 in /  1018.5 hPa WNW 3.1 mph /  5 km/h 6.0 mph /  9.7 km/h 48 % 0.00 in /  0 mm
16:50 45.0 °F /  7.2 °C 25.4 °F /  -3.7 °C 30.08 in /  1018.5 hPa West 3.8 mph /  6.1 km/h 6.9 mph /  11.1 km/h 46 % 0.00 in /  0 mm
16:55 44.9 °F /  7.2 °C 25.3 °F /  -3.7 °C 30.08 in /  1018.5 hPa NNW 6.8 mph /  10.9 km/h 11.5 mph /  18.5 km/h 46 % 0.00 in /  0 mm
17:00 44.8 °F /  7.1 °C 26.3 °F /  -3.2 °C 30.08 in /  1018.5 hPa West 5.5 mph /  8.9 km/h 10.0 mph /  16.1 km/h 48 % 0.00 in /  0 mm
17:05 44.7 °F /  7.1 °C 26.2 °F /  -3.2 °C 30.08 in /  1018.5 hPa WNW 7.0 mph /  11.3 km/h 17.3 mph /  27.8 km/h 48 % 0.00 in /  0 mm
17:10 44.6 °F /  7 °C 26.6 °F /  -3 °C 30.08 in /  1018.5 hPa WNW 5.2 mph /  8.4 km/h 8.1 mph /  13 km/h 49 % 0.00 in /  0 mm
17:15 44.5 °F /  6.9 °C 26.5 °F /  -3.1 °C 30.07 in /  1018.2 hPa WNW 2.8 mph /  4.5 km/h 9.2 mph /  14.8 km/h 49 % 0.00 in /  0 mm
17:20 44.5 °F /  6.9 °C 27.0 °F /  -2.8 °C 30.08 in /  1018.5 hPa WNW 3.2 mph /  5.1 km/h 11.5 mph /  18.5 km/h 50 % 0.00 in /  0 mm
17:25 44.4 °F /  6.9 °C 25.9 °F /  -3.4 °C 30.08 in /  1018.5 hPa West 6.8 mph /  10.9 km/h 11.5 mph /  18.5 km/h 48 % 0.00 in /  0 mm
17:30 44.5 °F /  6.9 °C 26.5 °F /  -3.1 °C 30.08 in /  1018.5 hPa SW 3.4 mph /  5.5 km/h 11.5 mph /  18.5 km/h 49 % 0.00 in /  0 mm
17:35 44.4 °F /  6.9 °C 26.4 °F /  -3.1 °C 30.08 in /  1018.5 hPa WNW 3.5 mph /  5.6 km/h 5.0 mph /  8 km/h 49 % 0.00 in /  0 mm
17:41 44.4 °F /  6.9 °C 25.9 °F /  -3.4 °C 30.08 in /  1018.5 hPa WNW 5.0 mph /  8 km/h 10.0 mph /  16.1 km/h 48 % 0.00 in /  0 mm
17:46 44.3 °F /  6.8 °C 25.8 °F /  -3.4 °C 30.08 in /  1018.5 hPa WNW 3.0 mph /  4.8 km/h 12.0 mph /  19.3 km/h 48 % 0.00 in /  0 mm
17:51 44.2 °F /  6.8 °C 25.2 °F /  -3.8 °C 30.08 in /  1018.5 hPa WNW 6.0 mph /  9.7 km/h 12.0 mph /  19.3 km/h 47 % 0.00 in /  0 mm
17:56 44.2 °F /  6.8 °C 25.2 °F /  -3.8 °C 30.08 in /  1018.5 hPa West 6.0 mph /  9.7 km/h 12.0 mph /  19.3 km/h 47 % 0.00 in /  0 mm
18:01 44.1 °F /  6.7 °C 25.6 °F /  -3.6 °C 30.09 in /  1018.8 hPa NW 5.7 mph /  9.2 km/h 8.1 mph /  13 km/h 48 % 0.00 in /  0 mm
18:06 44.0 °F /  6.7 °C 25.0 °F /  -3.9 °C 30.09 in /  1018.8 hPa West 4.8 mph /  7.7 km/h 10.4 mph /  16.7 km/h 47 % 0.00 in /  0 mm
18:11 44.0 °F /  6.7 °C 25.0 °F /  -3.9 °C 30.09 in /  1018.8 hPa West 0.5 mph /  0.8 km/h 4.6 mph /  7.4 km/h 47 % 0.00 in /  0 mm
18:16 43.9 °F /  6.6 °C 25.5 °F /  -3.6 °C 30.09 in /  1018.8 hPa WNW 1.4 mph /  2.3 km/h 5.8 mph /  9.3 km/h 48 % 0.00 in /  0 mm
18:21 43.8 °F /  6.6 °C 25.4 °F /  -3.7 °C 30.09 in /  1018.8 hPa WNW 1.6 mph /  2.6 km/h 6.9 mph /  11.1 km/h 48 % 0.00 in /  0 mm
18:26 43.7 °F /  6.5 °C 25.3 °F /  -3.7 °C 30.09 in /  1018.8 hPa West 2.5 mph /  4 km/h 6.9 mph /  11.1 km/h 48 % 0.00 in /  0 mm
18:31 43.6 °F /  6.4 °C 25.2 °F /  -3.8 °C 30.09 in /  1018.8 hPa WNW 1.9 mph /  3.1 km/h 3.5 mph /  5.6 km/h 48 % 0.00 in /  0 mm
18:36 43.5 °F /  6.4 °C 25.1 °F /  -3.8 °C 30.09 in /  1018.8 hPa West 1.8 mph /  2.9 km/h 3.5 mph /  5.6 km/h 48 % 0.00 in /  0 mm
18:41 43.4 °F /  6.3 °C 25.5 °F /  -3.6 °C 30.09 in /  1018.8 hPa West 3.0 mph /  4.8 km/h 5.8 mph /  9.3 km/h 49 % 0.00 in /  0 mm
18:46 43.3 °F /  6.3 °C 24.4 °F /  -4.2 °C 30.09 in /  1018.8 hPa WSW 4.4 mph /  7.1 km/h 8.1 mph /  13 km/h 47 % 0.00 in /  0 mm
18:51 43.1 °F /  6.2 °C 25.2 °F /  -3.8 °C 30.09 in /  1018.8 hPa WNW 1.7 mph /  2.7 km/h 6.9 mph /  11.1 km/h 49 % 0.00 in /  0 mm
18:56 43.1 °F /  6.2 °C 24.7 °F /  -4.1 °C 30.10 in /  1019.2 hPa West 2.5 mph /  4 km/h 6.9 mph /  11.1 km/h 48 % 0.00 in /  0 mm
19:01 42.9 °F /  6.1 °C 24.5 °F /  -4.2 °C 30.09 in /  1018.8 hPa WNW 2.4 mph /  3.9 km/h 5.8 mph /  9.3 km/h 48 % 0.00 in /  0 mm
19:06 42.8 °F /  6 °C 24.4 °F /  -4.2 °C 30.09 in /  1018.8 hPa West 2.5 mph /  4 km/h 9.2 mph /  14.8 km/h 48 % 0.00 in /  0 mm
19:11 42.7 °F /  5.9 °C 24.4 °F /  -4.2 °C 30.09 in /  1018.8 hPa WNW 2.8 mph /  4.5 km/h 6.9 mph /  11.1 km/h 48 % 0.00 in /  0 mm
19:16 42.6 °F /  5.9 °C 24.8 °F /  -4 °C 30.09 in /  1018.8 hPa WNW 2.6 mph /  4.2 km/h 3.5 mph /  5.6 km/h 49 % 0.00 in /  0 mm
19:21 42.5 °F /  5.8 °C 25.1 °F /  -3.8 °C 30.09 in /  1018.8 hPa NW 2.1 mph /  3.4 km/h 3.5 mph /  5.6 km/h 50 % 0.00 in /  0 mm
19:24 42.4 °F /  5.8 °C 25.1 °F /  -3.8 °C 30.09 in /  1018.8 hPa West 1.8 mph /  2.9 km/h 3.5 mph /  5.6 km/h 50 % 0.00 in /  0 mm
19:29 42.3 °F /  5.7 °C 25.0 °F /  -3.9 °C 30.09 in /  1018.8 hPa WSW 2.1 mph /  3.4 km/h 6.9 mph /  11.1 km/h 50 % 0.00 in /  0 mm
19:34 42.2 °F /  5.7 °C 25.3 °F /  -3.7 °C 30.10 in /  1019.2 hPa WNW 5.4 mph /  8.7 km/h 9.2 mph /  14.8 km/h 51 % 0.00 in /  0 mm
19:39 42.1 °F /  5.6 °C 24.8 °F /  -4 °C 30.09 in /  1018.8 hPa WNW 3.6 mph /  5.8 km/h 11.5 mph /  18.5 km/h 50 % 0.00 in /  0 mm
19:44 42.1 °F /  5.6 °C 24.8 °F /  -4 °C 30.09 in /  1018.8 hPa NW 3.7 mph /  6 km/h 6.0 mph /  9.7 km/h 50 % 0.00 in /  0 mm
19:49 42.0 °F /  5.6 °C 25.2 °F /  -3.8 °C 30.10 in /  1019.2 hPa WNW 3.3 mph /  5.3 km/h 8.1 mph /  13 km/h 51 % 0.00 in /  0 mm
19:54 42.0 °F /  5.6 °C 25.2 °F /  -3.8 °C 30.10 in /  1019.2 hPa WNW 3.7 mph /  6 km/h 9.2 mph /  14.8 km/h 51 % 0.00 in /  0 mm
19:59 42.0 °F /  5.6 °C 25.2 °F /  -3.8 °C 30.11 in /  1019.5 hPa NW 3.3 mph /  5.3 km/h 10.4 mph /  16.7 km/h 51 % 0.00 in /  0 mm
20:04 42.0 °F /  5.6 °C 25.2 °F /  -3.8 °C 30.11 in /  1019.5 hPa NW 4.0 mph /  6.4 km/h 7.0 mph /  11.3 km/h 51 % 0.00 in /  0 mm
20:09 42.0 °F /  5.6 °C 25.2 °F /  -3.8 °C 30.10 in /  1019.2 hPa WNW 4.7 mph /  7.6 km/h 7.0 mph /  11.3 km/h 51 % 0.00 in /  0 mm
20:14 42.0 °F /  5.6 °C 24.7 °F /  -4.1 °C 30.11 in /  1019.5 hPa WNW 3.8 mph /  6.1 km/h 8.1 mph /  13 km/h 50 % 0.00 in /  0 mm
20:19 42.0 °F /  5.6 °C 24.7 °F /  -4.1 °C 30.10 in /  1019.2 hPa WNW 3.0 mph /  4.8 km/h 7.0 mph /  11.3 km/h 50 % 0.00 in /  0 mm
20:24 41.9 °F /  5.5 °C 24.1 °F /  -4.4 °C 30.10 in /  1019.2 hPa WNW 6.0 mph /  9.7 km/h 11.5 mph /  18.5 km/h 49 % 0.00 in /  0 mm
20:29 41.9 °F /  5.5 °C 24.1 °F /  -4.4 °C 30.10 in /  1019.2 hPa WNW 4.1 mph /  6.6 km/h 9.2 mph /  14.8 km/h 49 % 0.00 in /  0 mm
20:34 41.9 °F /  5.5 °C 24.1 °F /  -4.4 °C 30.10 in /  1019.2 hPa WNW 0.3 mph /  0.5 km/h 4.6 mph /  7.4 km/h 49 % 0.00 in /  0 mm
20:39 41.8 °F /  5.4 °C 24.5 °F /  -4.2 °C 30.10 in /  1019.2 hPa WNW 1.9 mph /  3.1 km/h 3.5 mph /  5.6 km/h 50 % 0.00 in /  0 mm
20:44 41.8 °F /  5.4 °C 24.5 °F /  -4.2 °C 30.10 in /  1019.2 hPa NNW 1.0 mph /  1.6 km/h 3.5 mph /  5.6 km/h 50 % 0.00 in /  0 mm
20:49 41.7 °F /  5.4 °C 24.4 °F /  -4.2 °C 30.10 in /  1019.2 hPa WNW 2.8 mph /  4.5 km/h 5.8 mph /  9.3 km/h 50 % 0.00 in /  0 mm
20:54 41.6 °F /  5.3 °C 24.3 °F /  -4.3 °C 30.10 in /  1019.2 hPa North 3.9 mph /  6.3 km/h 8.1 mph /  13 km/h 50 % 0.00 in /  0 mm
21:00 41.5 °F /  5.3 °C 24.2 °F /  -4.3 °C 30.09 in /  1018.8 hPa WNW 4.9 mph /  7.9 km/h 8.0 mph /  12.9 km/h 50 % 0.00 in /  0 mm
21:05 41.4 °F /  5.2 °C 23.6 °F /  -4.7 °C 30.09 in /  1018.8 hPa NNW 0.3 mph /  0.5 km/h 5.8 mph /  9.3 km/h 49 % 0.00 in /  0 mm
21:10 41.2 °F /  5.1 °C 24.4 °F /  -4.2 °C 30.09 in /  1018.8 hPa NW 1.7 mph /  2.7 km/h 3.5 mph /  5.6 km/h 51 % 0.00 in /  0 mm
21:15 41.1 °F /  5.1 °C 24.8 °F /  -4 °C 30.09 in /  1018.8 hPa NNW 2.8 mph /  4.5 km/h 5.8 mph /  9.3 km/h 52 % 0.00 in /  0 mm
21:20 41.1 °F /  5.1 °C 23.9 °F /  -4.5 °C 30.09 in /  1018.8 hPa NNE 2.3 mph /  3.7 km/h 7.0 mph /  11.3 km/h 50 % 0.00 in /  0 mm
21:25 41.0 °F /  5 °C 23.8 °F /  -4.6 °C 30.08 in /  1018.5 hPa NNW 1.9 mph /  3.1 km/h 4.6 mph /  7.4 km/h 50 % 0.00 in /  0 mm
21:30 40.9 °F /  4.9 °C 24.1 °F /  -4.4 °C 30.08 in /  1018.5 hPa WNW 1.7 mph /  2.7 km/h 4.0 mph /  6.4 km/h 51 % 0.00 in /  0 mm
21:35 40.9 °F /  4.9 °C 24.1 °F /  -4.4 °C 30.09 in /  1018.8 hPa WNW 0.2 mph /  0.3 km/h 3.0 mph /  4.8 km/h 51 % 0.00 in /  0 mm
21:40 40.7 °F /  4.8 °C 24.0 °F /  -4.4 °C 30.08 in /  1018.5 hPa Calm     51 % 0.00 in /  0 mm
21:45 40.6 °F /  4.8 °C 24.3 °F /  -4.3 °C 30.08 in /  1018.5 hPa WNW 1.3 mph /  2.1 km/h 2.3 mph /  3.7 km/h 52 % 0.00 in /  0 mm
21:50 40.5 °F /  4.7 °C 24.2 °F /  -4.3 °C 30.08 in /  1018.5 hPa West 1.5 mph /  2.4 km/h 3.5 mph /  5.6 km/h 52 % 0.00 in /  0 mm
21:55 40.3 °F /  4.6 °C 24.1 °F /  -4.4 °C 30.08 in /  1018.5 hPa West 3.8 mph /  6.1 km/h 5.8 mph /  9.3 km/h 52 % 0.00 in /  0 mm
22:00 40.2 °F /  4.6 °C 24.9 °F /  -3.9 °C 30.09 in /  1018.8 hPa West 2.1 mph /  3.4 km/h 5.8 mph /  9.3 km/h 54 % 0.00 in /  0 mm
22:05 40.1 °F /  4.5 °C 24.8 °F /  -4 °C 30.09 in /  1018.8 hPa WNW 0.5 mph /  0.8 km/h 2.3 mph /  3.7 km/h 54 % 0.00 in /  0 mm
22:11 40.0 °F /  4.4 °C 25.6 °F /  -3.6 °C 30.10 in /  1019.2 hPa WNW 1.8 mph /  2.9 km/h 5.8 mph /  9.3 km/h 56 % 0.00 in /  0 mm
22:17 39.9 °F /  4.4 °C 25.0 °F /  -3.9 °C 30.10 in /  1019.2 hPa NW 1.0 mph /  1.6 km/h 9.2 mph /  14.8 km/h 55 % 0.00 in /  0 mm
22:22 39.8 °F /  4.3 °C 24.9 °F /  -3.9 °C 30.11 in /  1019.5 hPa West 1.2 mph /  1.9 km/h 5.8 mph /  9.3 km/h 55 % 0.00 in /  0 mm
22:23 39.8 °F /  4.3 °C 25.4 °F /  -3.7 °C 30.11 in /  1019.5 hPa WNW 1.3 mph /  2.1 km/h 3.5 mph /  5.6 km/h 56 % 0.00 in /  0 mm
22:24 39.8 °F /  4.3 °C 24.9 °F /  -3.9 °C 29.86 in /  1011.1 hPa West 4.7 mph /  7.6 km/h 6.0 mph /  9.7 km/h 55 % 0.00 in /  0 mm
22:27 39.7 °F /  4.3 °C 24.8 °F /  -4 °C 30.11 in /  1019.5 hPa WSW 2.5 mph /  4 km/h 6.9 mph /  11.1 km/h 55 % 0.00 in /  0 mm
22:32 39.7 °F /  4.3 °C 24.8 °F /  -4 °C 30.11 in /  1019.5 hPa West 3.5 mph /  5.6 km/h 6.0 mph /  9.7 km/h 55 % 0.00 in /  0 mm
22:33 39.7 °F /  4.3 °C 24.8 °F /  -4 °C 30.11 in /  1019.5 hPa WSW 3.2 mph /  5.1 km/h 5.8 mph /  9.3 km/h 55 % 0.00 in /  0 mm
22:38 39.7 °F /  4.3 °C 24.4 °F /  -4.2 °C 30.10 in /  1019.2 hPa West 1.1 mph /  1.8 km/h 5.8 mph /  9.3 km/h 54 % 0.00 in /  0 mm
22:43 39.7 °F /  4.3 °C 24.8 °F /  -4 °C 30.10 in /  1019.2 hPa West 1.8 mph /  2.9 km/h 5.8 mph /  9.3 km/h 55 % 0.00 in /  0 mm
22:48 39.7 °F /  4.3 °C 24.8 °F /  -4 °C 30.09 in /  1018.8 hPa WNW 3.5 mph /  5.6 km/h 5.8 mph /  9.3 km/h 55 % 0.00 in /  0 mm
22:53 39.7 °F /  4.3 °C 25.3 °F /  -3.7 °C 30.10 in /  1019.2 hPa West 2.8 mph /  4.5 km/h 3.5 mph /  5.6 km/h 56 % 0.00 in /  0 mm
22:58 39.6 °F /  4.2 °C 25.2 °F /  -3.8 °C 30.09 in /  1018.8 hPa West 1.0 mph /  1.6 km/h 2.3 mph /  3.7 km/h 56 % 0.00 in /  0 mm
23:03 39.6 °F /  4.2 °C 25.6 °F /  -3.6 °C 30.09 in /  1018.8 hPa NW 2.2 mph /  3.5 km/h 6.9 mph /  11.1 km/h 57 % 0.00 in /  0 mm
23:08 39.6 °F /  4.2 °C 25.6 °F /  -3.6 °C 30.08 in /  1018.5 hPa West 2.8 mph /  4.5 km/h 4.6 mph /  7.4 km/h 57 % 0.00 in /  0 mm
23:13 39.5 °F /  4.2 °C 25.5 °F /  -3.6 °C 30.09 in /  1018.8 hPa West 2.0 mph /  3.2 km/h 3.5 mph /  5.6 km/h 57 % 0.00 in /  0 mm
23:18 39.4 °F /  4.1 °C 25.8 °F /  -3.4 °C 30.09 in /  1018.8 hPa West 1.6 mph /  2.6 km/h 3.5 mph /  5.6 km/h 58 % 0.00 in /  0 mm
23:23 39.3 °F /  4.1 °C 25.7 °F /  -3.5 °C 30.09 in /  1018.8 hPa WNW 3.1 mph /  5 km/h 5.8 mph /  9.3 km/h 58 % 0.00 in /  0 mm
23:28 39.3 °F /  4.1 °C 25.7 °F /  -3.5 °C 30.09 in /  1018.8 hPa West 0.7 mph /  1.1 km/h 4.6 mph /  7.4 km/h 58 % 0.00 in /  0 mm
23:33 39.3 °F /  4.1 °C 26.2 °F /  -3.2 °C 30.09 in /  1018.8 hPa WNW 1.7 mph /  2.7 km/h 5.8 mph /  9.3 km/h 59 % 0.00 in /  0 mm
23:38 39.2 °F /  4 °C 26.1 °F /  -3.3 °C 30.09 in /  1018.8 hPa NW 2.1 mph /  3.4 km/h 3.5 mph /  5.6 km/h 59 % 0.00 in /  0 mm
23:44 39.1 °F /  3.9 °C 26.0 °F /  -3.3 °C 30.09 in /  1018.8 hPa WNW 2.6 mph /  4.2 km/h 8.1 mph /  13 km/h 59 % 0.00 in /  0 mm
23:49 39.1 °F /  3.9 °C 26.4 °F /  -3.1 °C 30.08 in /  1018.5 hPa NW 2.3 mph /  3.7 km/h 6.9 mph /  11.1 km/h 60 % 0.00 in /  0 mm
23:54 39.0 °F /  3.9 °C 26.3 °F /  -3.2 °C 30.08 in /  1018.5 hPa NW 1.3 mph /  2.1 km/h 3.5 mph /  5.6 km/h 60 % 0.00 in /  0 mm
23:59 39.0 °F /  3.9 °C 26.3 °F /  -3.2 °C 30.09 in /  1018.8 hPa WNW 0.5 mph /  0.8 km/h 3.5 mph /  5.6 km/h 60 % 0.00 in /  0 mm
Crab Meadow Weather
Compliments of Weather Underground - 3.25 mb

Script developed by  Jim McMurry - jmcmurry@mwt.net Adapted for the template by  Wim van der Kuil - Leuven-Template.eu

Lightning: At any given moment, there are about 1,800 thunderstorms happening around the world. Approximately 100 lightning bolts strike the earth every second.